Houghton, New York
Current Conditions -  °F | °C
As of 10:55 AM on Sunday 21 Dec 2014 (Local Time) from KOLE Reporting Station
Overcast Overcast  
Wind Chill: 27°   Ceiling: 600
Heat Index: 27°   Visibility: 10mi
Dew Point: 27°   Wind: 0mph
Humidity: 100%   Direction: NA
Pressure: 30.24"   Gusts: NA
Location:  42.42°N, 78.16°W
Report Text: KOLE 211555Z AUTO 00000KT 10SM OVC006 M03/M03 A3024 RMK AO2
Loading
Personal Weather Stations






























Interactive Weather Map New forecast layout! Learn more

10-Day Weather Forecast

Advertisements
Track Severe Weather on mobile